Time;durP1;ratioP1;P1;durP2;ratioP2;P2;SDS_P1;SDS_P2;PMS_P1;PMS_P2;Temp;Humidity;BMP_temperature;BMP_pressure;BME280_temperature;BME280_humidity;BME280_pressure;Samples;Min_cycle;Max_cycle;Signal;HPM_P1;HPM_P2
2022/07/16 00:01:22;;;;;;;;;;;17.50;62.60;;;;;;4875791;29;20062;-79
2022/07/16 00:03:56;;;;;;;;;;;17.50;62.70;;;;;;4875277;29;20335;-79
2022/07/16 00:06:22;;;;;;;;;;;17.50;62.60;;;;;;4875506;29;19908;-79
2022/07/16 00:08:47;;;;;;;;;;;17.50;62.60;;;;;;4879103;29;20269;-79
2022/07/16 00:11:13;;;;;;;;;;;17.50;62.50;;;;;;4878306;29;19951;-78
2022/07/16 00:13:39;;;;;;;;;;;17.50;62.50;;;;;;4879616;29;19915;-78
2022/07/16 00:16:06;;;;;;;;;;;17.50;62.50;;;;;;4879523;29;20339;-79
2022/07/16 00:21:15;;;;;;;;;;;17.50;62.40;;;;;;4878857;29;20109;-78
2022/07/16 00:23:41;;;;;;;;;;;17.40;62.30;;;;;;4878206;29;19912;-79
2022/07/16 00:26:07;;;;;;;;;;;17.40;62.40;;;;;;4861764;29;19994;-78
2022/07/16 00:28:32;;;;;;;;;;;17.30;62.40;;;;;;4861124;29;19913;-79
2022/07/16 00:30:58;;;;;;;;;;;17.30;62.50;;;;;;4878503;29;19947;-79
2022/07/16 00:33:23;;;;;;;;;;;17.30;62.40;;;;;;4876976;29;19912;-79
2022/07/16 00:35:49;;;;;;;;;;;17.30;62.30;;;;;;4877200;29;19987;-79
2022/07/16 00:38:14;;;;;;;;;;;17.20;62.30;;;;;;4877397;29;19912;-79
2022/07/16 00:40:40;;;;;;;;;;;17.20;62.30;;;;;;4879076;29;19912;-78
2022/07/16 00:43:09;;;;;;;;;;;17.20;62.30;;;;;;4878795;29;20055;-79
2022/07/16 00:45:35;;;;;;;;;;;17.10;62.30;;;;;;4878054;29;19908;-79
2022/07/16 00:48:00;;;;;;;;;;;17.10;62.50;;;;;;4878023;29;20288;-79
2022/07/16 00:50:26;;;;;;;;;;;17.10;62.50;;;;;;4877929;29;19915;-79
2022/07/16 00:52:52;;;;;;;;;;;17.00;62.50;;;;;;4876850;29;19919;-78
2022/07/16 00:55:17;;;;;;;;;;;17.10;62.50;;;;;;4861537;29;19916;-78
2022/07/16 00:57:43;;;;;;;;;;;17.00;62.40;;;;;;4879273;29;19966;-78
2022/07/16 01:00:08;;;;;;;;;;;17.00;62.40;;;;;;4861380;29;19923;-78
2022/07/16 01:02:34;;;;;;;;;;;17.00;62.40;;;;;;4878324;29;19908;-78
2022/07/16 01:05:00;;;;;;;;;;;16.90;62.40;;;;;;4877864;29;19916;-68
2022/07/16 01:07:26;;;;;;;;;;;16.90;62.50;;;;;;4878432;29;20023;-78
2022/07/16 01:09:52;;;;;;;;;;;16.90;62.50;;;;;;4861065;29;20007;-78
2022/07/16 01:12:17;;;;;;;;;;;16.90;62.50;;;;;;4876699;29;19976;-78
2022/07/16 01:14:43;;;;;;;;;;;16.90;62.50;;;;;;4877608;29;20010;-78
2022/07/16 01:17:09;;;;;;;;;;;16.80;62.60;;;;;;4876128;29;19912;-78
2022/07/16 01:19:34;;;;;;;;;;;16.80;62.60;;;;;;4876232;29;19907;-78
2022/07/16 01:22:00;;;;;;;;;;;16.80;62.60;;;;;;4877701;29;19963;-78
2022/07/16 01:24:25;;;;;;;;;;;16.80;62.60;;;;;;4876090;29;20357;-78
2022/07/16 01:26:51;;;;;;;;;;;16.80;62.60;;;;;;4877352;29;19944;-78
2022/07/16 01:29:17;;;;;;;;;;;16.80;62.60;;;;;;4877460;29;19951;-78
2022/07/16 01:31:42;;;;;;;;;;;16.90;62.60;;;;;;4860888;29;19920;-78
2022/07/16 01:34:26;;;;;;;;;;;16.90;62.60;;;;;;4876525;29;19935;-78
2022/07/16 01:36:57;;;;;;;;;;;16.90;62.60;;;;;;4878383;29;19967;-78
2022/07/16 01:39:24;;;;;;;;;;;17.00;62.60;;;;;;4877450;29;19908;-79
2022/07/16 01:41:53;;;;;;;;;;;17.00;62.60;;;;;;4878104;29;20136;-78
2022/07/16 01:44:19;;;;;;;;;;;17.00;62.60;;;;;;4877333;29;20277;-78
2022/07/16 01:46:45;;;;;;;;;;;17.00;62.50;;;;;;4876887;29;19912;-78
2022/07/16 01:49:11;;;;;;;;;;;17.00;62.50;;;;;;4877906;29;19911;-78
2022/07/16 01:51:36;;;;;;;;;;;17.00;62.50;;;;;;4876788;29;19943;-78
2022/07/16 01:54:02;;;;;;;;;;;17.00;62.40;;;;;;4876156;29;19916;-78
2022/07/16 01:56:27;;;;;;;;;;;17.00;62.40;;;;;;4877700;29;19968;-78
2022/07/16 01:58:53;;;;;;;;;;;17.00;62.30;;;;;;4876460;29;19939;-78
2022/07/16 02:01:18;;;;;;;;;;;17.00;62.30;;;;;;4878048;29;19933;-78
2022/07/16 02:03:44;;;;;;;;;;;17.00;62.20;;;;;;4879136;29;19943;-78
2022/07/16 02:06:10;;;;;;;;;;;17.00;62.20;;;;;;4877352;29;20014;-74
2022/07/16 02:08:35;;;;;;;;;;;17.00;62.20;;;;;;4876738;29;19912;-78
2022/07/16 02:11:01;;;;;;;;;;;16.90;62.20;;;;;;4877049;29;20002;-78
2022/07/16 02:13:26;;;;;;;;;;;16.90;62.30;;;;;;4877081;29;20273;-78
2022/07/16 02:15:52;;;;;;;;;;;16.80;62.30;;;;;;4877502;29;19989;-78
2022/07/16 02:18:17;;;;;;;;;;;16.80;62.30;;;;;;4876961;29;19916;-77
2022/07/16 02:20:43;;;;;;;;;;;16.80;62.40;;;;;;4876975;29;19912;-77
2022/07/16 02:23:09;;;;;;;;;;;16.70;62.50;;;;;;4875330;29;20031;-77
2022/07/16 02:25:34;;;;;;;;;;;16.60;62.50;;;;;;4875196;29;20115;-77
2022/07/16 02:28:06;;;;;;;;;;;16.60;62.50;;;;;;4875113;29;20069;-79
2022/07/16 02:30:33;;;;;;;;;;;16.50;62.50;;;;;;4874914;29;19919;-78
2022/07/16 02:32:58;;;;;;;;;;;16.40;62.70;;;;;;4875677;29;19907;-78
2022/07/16 02:35:24;;;;;;;;;;;16.30;62.80;;;;;;4876969;29;20301;-79
2022/07/16 02:37:50;;;;;;;;;;;16.30;62.80;;;;;;4875478;29;19912;-78
2022/07/16 02:40:16;;;;;;;;;;;16.30;62.80;;;;;;4875761;29;20006;-78
2022/07/16 02:42:41;;;;;;;;;;;16.30;62.70;;;;;;4875671;29;19964;-77
2022/07/16 02:45:07;;;;;;;;;;;16.10;62.60;;;;;;4877400;29;20006;-77
2022/07/16 02:47:33;;;;;;;;;;;16.00;62.70;;;;;;4877310;29;19928;-77
2022/07/16 02:49:59;;;;;;;;;;;16.00;62.90;;;;;;4876015;29;20559;-77
2022/07/16 02:52:25;;;;;;;;;;;16.00;62.90;;;;;;4876019;29;19916;-78
2022/07/16 02:54:50;;;;;;;;;;;16.00;62.90;;;;;;4874330;29;19912;-77
2022/07/16 02:57:16;;;;;;;;;;;16.00;62.80;;;;;;4876205;29;20376;-77
2022/07/16 02:59:41;;;;;;;;;;;16.00;62.80;;;;;;4874790;29;19923;-77
2022/07/16 03:02:07;;;;;;;;;;;16.00;62.70;;;;;;4875012;29;19958;-78
2022/07/16 03:04:34;;;;;;;;;;;16.00;62.70;;;;;;4875138;29;19924;-77
2022/07/16 03:06:59;;;;;;;;;;;16.00;62.70;;;;;;4874143;29;20304;-77
2022/07/16 03:09:25;;;;;;;;;;;15.90;62.70;;;;;;4873813;29;19915;-77
2022/07/16 03:11:51;;;;;;;;;;;15.90;62.70;;;;;;4874120;29;19960;-77
2022/07/16 03:14:16;;;;;;;;;;;15.80;62.70;;;;;;4874664;29;19915;-77
2022/07/16 03:16:42;;;;;;;;;;;15.80;62.70;;;;;;4876008;29;19991;-77
2022/07/16 03:19:07;;;;;;;;;;;15.80;62.60;;;;;;4875258;29;19912;-77
2022/07/16 03:21:33;;;;;;;;;;;15.80;62.60;;;;;;4876123;29;19912;-78
2022/07/16 03:23:58;;;;;;;;;;;15.80;62.60;;;;;;4876051;29;19912;-78
2022/07/16 03:26:24;;;;;;;;;;;15.70;62.60;;;;;;4875782;29;19965;-77
2022/07/16 03:28:49;;;;;;;;;;;15.70;62.70;;;;;;4875381;29;19975;-77
2022/07/16 03:31:17;;;;;;;;;;;15.70;62.80;;;;;;4875650;29;20391;-78
2022/07/16 03:33:43;;;;;;;;;;;15.70;62.80;;;;;;4875711;29;19912;-77
2022/07/16 03:36:08;;;;;;;;;;;15.60;62.80;;;;;;4875924;29;19959;-77
2022/07/16 03:41:18;;;;;;;;;;;15.60;62.80;;;;;;4874358;29;19919;-77
2022/07/16 03:43:44;;;;;;;;;;;15.50;62.80;;;;;;4873859;29;19908;-78
2022/07/16 03:46:13;;;;;;;;;;;15.50;62.90;;;;;;4873816;29;19941;-77
2022/07/16 03:48:39;;;;;;;;;;;15.40;62.80;;;;;;4875293;29;20250;-77
2022/07/16 03:51:06;;;;;;;;;;;15.40;62.80;;;;;;4873586;29;20276;-78
2022/07/16 03:53:35;;;;;;;;;;;15.40;62.80;;;;;;4875180;29;19912;-78
2022/07/16 03:56:01;;;;;;;;;;;15.40;62.70;;;;;;4873424;29;19912;-78
2022/07/16 03:58:26;;;;;;;;;;;15.40;62.70;;;;;;4874597;29;19964;-78
2022/07/16 04:00:52;;;;;;;;;;;15.40;62.70;;;;;;4875587;29;19919;-78
2022/07/16 04:03:18;;;;;;;;;;;15.40;62.70;;;;;;4875549;29;19912;-78
2022/07/16 04:05:44;;;;;;;;;;;15.30;62.70;;;;;;4874141;29;19918;-78
2022/07/16 04:08:09;;;;;;;;;;;15.30;62.70;;;;;;4874757;29;20356;-78
2022/07/16 04:10:35;;;;;;;;;;;15.30;62.70;;;;;;4873501;29;19908;-78
2022/07/16 04:13:00;;;;;;;;;;;15.30;62.90;;;;;;4875198;29;20357;-79
2022/07/16 04:15:26;;;;;;;;;;;15.30;62.70;;;;;;4875333;29;20290;-78
2022/07/16 04:17:52;;;;;;;;;;;15.20;62.70;;;;;;4875545;29;19914;-78
2022/07/16 04:20:17;;;;;;;;;;;15.30;62.80;;;;;;4875395;29;20353;-78
2022/07/16 04:22:43;;;;;;;;;;;15.20;62.70;;;;;;4873968;29;20263;-78
2022/07/16 04:25:08;;;;;;;;;;;15.30;62.80;;;;;;4874305;29;19915;-78
2022/07/16 04:27:34;;;;;;;;;;;15.20;62.80;;;;;;4874690;29;19928;-78
2022/07/16 04:30:00;;;;;;;;;;;15.20;62.80;;;;;;4873655;29;20382;-78
2022/07/16 04:32:25;;;;;;;;;;;15.20;62.80;;;;;;4874537;29;19941;-78
2022/07/16 04:34:51;;;;;;;;;;;15.20;62.80;;;;;;4873294;29;20047;-78
2022/07/16 04:37:16;;;;;;;;;;;15.20;62.80;;;;;;4874892;29;19919;-78
2022/07/16 04:39:42;;;;;;;;;;;15.30;62.80;;;;;;4874916;29;20010;-78
2022/07/16 04:42:07;;;;;;;;;;;15.30;62.70;;;;;;4873572;29;20391;-78
2022/07/16 04:44:33;;;;;;;;;;;15.30;62.70;;;;;;4857721;29;19983;-78
2022/07/16 04:46:58;;;;;;;;;;;15.30;62.80;;;;;;4873290;29;19999;-78
2022/07/16 04:49:24;;;;;;;;;;;15.30;62.80;;;;;;4874976;29;19930;-78
2022/07/16 04:51:49;;;;;;;;;;;15.30;62.80;;;;;;4873423;29;19912;-78
2022/07/16 04:54:15;;;;;;;;;;;15.40;62.80;;;;;;4860005;29;19916;-78
2022/07/16 04:56:41;;;;;;;;;;;15.40;62.80;;;;;;4877039;29;20296;-79
2022/07/16 04:59:06;;;;;;;;;;;15.50;62.80;;;;;;4876856;29;19915;-78
2022/07/16 05:01:32;;;;;;;;;;;15.50;62.70;;;;;;4877087;29;19962;-79
2022/07/16 05:03:57;;;;;;;;;;;15.50;62.90;;;;;;4861271;29;19919;-78
2022/07/16 05:06:23;;;;;;;;;;;15.50;62.90;;;;;;4877516;29;19919;-78
2022/07/16 05:08:49;;;;;;;;;;;15.60;62.80;;;;;;4876105;29;19912;-78
2022/07/16 05:11:14;;;;;;;;;;;15.70;62.90;;;;;;4876005;29;20265;-78
2022/07/16 05:13:40;;;;;;;;;;;15.80;62.80;;;;;;4876127;29;19982;-79
2022/07/16 05:16:06;;;;;;;;;;;15.80;62.70;;;;;;4877241;29;19927;-78
2022/07/16 05:18:31;;;;;;;;;;;15.80;62.80;;;;;;4875785;29;20437;-78
2022/07/16 05:20:57;;;;;;;;;;;15.80;62.80;;;;;;4875871;29;19979;-78
2022/07/16 05:23:22;;;;;;;;;;;15.90;62.80;;;;;;4876958;29;19908;-77
2022/07/16 05:25:48;;;;;;;;;;;15.90;62.90;;;;;;4876906;29;19911;-79
2022/07/16 05:28:14;;;;;;;;;;;15.90;63.00;;;;;;4875618;29;20470;-80
2022/07/16 05:30:39;;;;;;;;;;;15.90;62.90;;;;;;4876765;29;19933;-78
2022/07/16 05:33:05;;;;;;;;;;;15.90;62.90;;;;;;4876833;29;19919;-79
2022/07/16 05:35:30;;;;;;;;;;;16.00;63.00;;;;;;4875373;29;20399;-68
2022/07/16 05:37:56;;;;;;;;;;;16.10;62.90;;;;;;4876433;29;19969;-78
2022/07/16 05:40:21;;;;;;;;;;;16.20;62.80;;;;;;4875600;29;19968;-79
2022/07/16 05:42:47;;;;;;;;;;;16.30;62.60;;;;;;4859961;29;19947;-78
2022/07/16 05:45:13;;;;;;;;;;;16.30;62.50;;;;;;4876812;29;19911;-78
2022/07/16 05:47:38;;;;;;;;;;;16.30;62.70;;;;;;4876607;29;20326;-78
2022/07/16 05:50:05;;;;;;;;;;;16.50;62.70;;;;;;4876645;29;19908;-79
2022/07/16 05:52:30;;;;;;;;;;;16.60;62.60;;;;;;4876410;29;19998;-79
2022/07/16 05:54:56;;;;;;;;;;;16.80;62.60;;;;;;4876327;29;20019;-79
2022/07/16 05:57:21;;;;;;;;;;;16.90;62.60;;;;;;4875086;29;19912;-79
2022/07/16 05:59:47;;;;;;;;;;;17.10;62.70;;;;;;4875197;29;19920;-79
2022/07/16 06:02:13;;;;;;;;;;;17.30;62.70;;;;;;4876676;29;19907;-78
2022/07/16 06:04:38;;;;;;;;;;;17.70;62.80;;;;;;4874594;29;20395;-79
2022/07/16 06:07:04;;;;;;;;;;;18.50;62.50;;;;;;4875048;29;20040;-79
2022/07/16 06:09:29;;;;;;;;;;;19.20;61.80;;;;;;4876115;29;19920;-79
2022/07/16 06:11:55;;;;;;;;;;;19.70;61.30;;;;;;4875015;29;20002;-79
2022/07/16 06:14:20;;;;;;;;;;;20.10;60.80;;;;;;4876275;29;19911;-79
2022/07/16 06:16:46;;;;;;;;;;;20.30;60.50;;;;;;4876603;29;20029;-79
2022/07/16 06:19:12;;;;;;;;;;;20.60;60.50;;;;;;4877957;29;20356;-79
2022/07/16 06:21:37;;;;;;;;;;;20.80;60.70;;;;;;4876640;29;19919;-79
2022/07/16 06:24:03;;;;;;;;;;;21.10;60.90;;;;;;4875526;29;19916;-80
2022/07/16 06:26:28;;;;;;;;;;;21.50;60.80;;;;;;4875598;29;19933;-79
2022/07/16 06:28:54;;;;;;;;;;;21.70;60.80;;;;;;4876349;29;19912;-79
2022/07/16 06:31:19;;;;;;;;;;;22.00;60.80;;;;;;4877379;29;19916;-78
2022/07/16 06:33:45;;;;;;;;;;;22.40;60.40;;;;;;4878626;29;20296;-79
2022/07/16 06:36:10;;;;;;;;;;;22.50;60.10;;;;;;4879201;29;19919;-79
2022/07/16 06:38:36;;;;;;;;;;;22.50;60.30;;;;;;4878601;29;19975;-79
2022/07/16 06:41:02;;;;;;;;;;;22.70;60.20;;;;;;4879355;29;20313;-79
2022/07/16 06:43:27;;;;;;;;;;;23.00;60.60;;;;;;4876665;29;20368;-79
2022/07/16 06:45:53;;;;;;;;;;;23.30;60.00;;;;;;4877429;29;19912;-79
2022/07/16 06:48:18;;;;;;;;;;;23.60;59.90;;;;;;4876634;29;19908;-79
2022/07/16 06:50:44;;;;;;;;;;;23.70;59.70;;;;;;4876205;29;20204;-80
2022/07/16 06:53:10;;;;;;;;;;;23.60;60.00;;;;;;4877952;29;19945;-79
2022/07/16 06:55:35;;;;;;;;;;;23.60;60.40;;;;;;4879297;29;19922;-80
2022/07/16 06:58:01;;;;;;;;;;;23.80;60.60;;;;;;4878044;29;19936;-79
2022/07/16 07:00:26;;;;;;;;;;;24.30;60.40;;;;;;4879218;29;19924;-79
2022/07/16 07:02:52;;;;;;;;;;;24.80;60.00;;;;;;4878219;29;19912;-79
2022/07/16 07:05:18;;;;;;;;;;;25.30;60.00;;;;;;4878998;29;19911;-78
2022/07/16 07:07:43;;;;;;;;;;;26.00;60.10;;;;;;4877655;29;20043;-79
2022/07/16 07:10:09;;;;;;;;;;;26.70;59.90;;;;;;4876816;29;19912;-79
2022/07/16 07:12:35;;;;;;;;;;;27.20;59.50;;;;;;4876549;29;19950;-79
2022/07/16 07:15:00;;;;;;;;;;;27.40;59.80;;;;;;4878353;29;19926;-78
2022/07/16 07:17:26;;;;;;;;;;;28.10;59.80;;;;;;4878376;29;20005;-78
2022/07/16 07:19:51;;;;;;;;;;;28.50;59.60;;;;;;4878658;29;19919;-79
2022/07/16 07:22:17;;;;;;;;;;;29.10;59.80;;;;;;4876738;29;20018;-79
2022/07/16 07:24:42;;;;;;;;;;;29.80;59.90;;;;;;4878256;29;19941;-79
2022/07/16 07:27:08;;;;;;;;;;;30.50;59.70;;;;;;4880526;29;19920;-79
2022/07/16 07:29:33;;;;;;;;;;;31.10;59.30;;;;;;4880212;29;20335;-79
2022/07/16 07:31:59;;;;;;;;;;;31.40;59.10;;;;;;4880280;29;19918;-79
2022/07/16 07:34:25;;;;;;;;;;;31.80;59.00;;;;;;4877327;29;19916;-78
2022/07/16 07:36:50;;;;;;;;;;;32.20;59.00;;;;;;4877244;29;19931;-78
2022/07/16 07:39:16;;;;;;;;;;;32.40;59.10;;;;;;4877987;29;19912;-78
2022/07/16 07:41:42;;;;;;;;;;;32.20;59.60;;;;;;4879261;29;19959;-79
2022/07/16 07:44:07;;;;;;;;;;;32.10;60.10;;;;;;4878188;29;19990;-78
2022/07/16 07:46:33;;;;;;;;;;;32.10;60.60;;;;;;4879139;29;19912;-78
2022/07/16 07:48:58;;;;;;;;;;;32.50;61.00;;;;;;4879969;29;19918;-78
2022/07/16 07:51:24;;;;;;;;;;;33.10;61.30;;;;;;4878924;29;19924;-78
2022/07/16 07:53:49;;;;;;;;;;;33.80;61.20;;;;;;4879742;29;20380;-78
2022/07/16 07:56:15;;;;;;;;;;;34.60;61.00;;;;;;4876911;29;19919;-79
2022/07/16 07:58:41;;;;;;;;;;;35.30;60.70;;;;;;4876588;29;19918;-79
2022/07/16 08:01:07;;;;;;;;;;;35.80;60.40;;;;;;4876051;29;19991;-78
2022/07/16 08:03:33;;;;;;;;;;;36.10;60.00;;;;;;4878947;29;20362;-81
2022/07/16 08:05:59;;;;;;;;;;;36.20;60.10;;;;;;4877715;29;19999;-80
2022/07/16 08:08:24;;;;;;;;;;;36.00;60.40;;;;;;4878020;29;19916;-80
2022/07/16 08:10:50;;;;;;;;;;;35.70;61.00;;;;;;4878618;29;19926;-79
2022/07/16 08:13:16;;;;;;;;;;;35.50;61.00;;;;;;4877080;29;19911;-80
2022/07/16 08:15:42;;;;;;;;;;;35.50;61.30;;;;;;4875737;29;20339;-80
2022/07/16 08:18:07;;;;;;;;;;;35.80;61.50;;;;;;4877671;29;20252;-79
2022/07/16 08:20:33;;;;;;;;;;;36.20;61.70;;;;;;4877459;29;20312;-79
2022/07/16 08:22:58;;;;;;;;;;;36.60;61.40;;;;;;4879049;29;20325;-79
2022/07/16 08:28:08;;;;;;;;;;;36.60;60.90;;;;;;4877097;29;19950;-80
2022/07/16 08:30:34;;;;;;;;;;;36.30;61.40;;;;;;4881889;29;19912;-80
2022/07/16 08:32:59;;;;;;;;;;;36.10;62.10;;;;;;4882748;29;19911;-80
2022/07/16 08:35:25;;;;;;;;;;;35.90;62.60;;;;;;4881269;29;19966;-80
2022/07/16 08:37:50;;;;;;;;;;;35.70;63.10;;;;;;4879583;29;20257;-79
2022/07/16 08:40:18;;;;;;;;;;;36.00;63.60;;;;;;4879735;29;19919;-79
2022/07/16 08:42:44;;;;;;;;;;;36.30;63.00;;;;;;4880782;29;20400;-80
2022/07/16 08:45:10;;;;;;;;;;;36.50;62.70;;;;;;4878957;29;19912;-80
2022/07/16 08:47:36;;;;;;;;;;;36.70;62.50;;;;;;4879094;29;19908;-80
2022/07/16 08:50:04;;;;;;;;;;;36.90;62.70;;;;;;4879920;29;19922;-80
2022/07/16 08:52:29;;;;;;;;;;;37.10;62.80;;;;;;4878527;29;20499;-79
2022/07/16 08:54:56;;;;;;;;;;;37.10;62.90;;;;;;4880072;29;19958;-79
2022/07/16 08:57:22;;;;;;;;;;;36.90;62.80;;;;;;4880288;29;20380;-79
2022/07/16 08:59:48;;;;;;;;;;;36.40;63.30;;;;;;4877814;29;19916;-79
2022/07/16 09:02:13;;;;;;;;;;;36.20;63.50;;;;;;4878942;29;19915;-79
2022/07/16 09:04:41;;;;;;;;;;;36.00;63.40;;;;;;4879193;29;20025;-80
2022/07/16 09:07:06;;;;;;;;;;;35.70;63.30;;;;;;4880024;29;19911;-80
2022/07/16 09:09:32;;;;;;;;;;;35.40;63.70;;;;;;4880224;29;19912;-80
2022/07/16 09:11:58;;;;;;;;;;;35.30;64.30;;;;;;4877307;29;20064;-79
2022/07/16 09:14:23;;;;;;;;;;;35.60;64.10;;;;;;4878104;29;19919;-80
2022/07/16 09:16:50;;;;;;;;;;;36.00;64.00;;;;;;4878931;29;19916;-79
2022/07/16 09:19:21;;;;;;;;;;;36.40;64.00;;;;;;4878564;29;19908;-79
2022/07/16 09:22:05;;;;;;;;;;;36.80;63.70;;;;;;4881160;29;19931;-79
2022/07/16 09:24:31;;;;;;;;;;;37.00;63.70;;;;;;4877620;29;20029;-80
2022/07/16 09:27:03;;;;;;;;;;;37.20;63.50;;;;;;4878393;29;20095;-80
2022/07/16 09:29:32;;;;;;;;;;;37.20;63.40;;;;;;4880551;29;19957;-79
2022/07/16 09:31:57;;;;;;;;;;;37.10;63.40;;;;;;4880242;29;19957;-80
2022/07/16 09:34:23;;;;;;;;;;;37.10;63.40;;;;;;4879138;29;19912;-79
2022/07/16 09:37:14;;;;;;;;;;;37.30;63.50;;;;;;4879787;29;19943;-79
2022/07/16 09:39:44;;;;;;;;;;;37.50;63.50;;;;;;4878634;29;20167;-79
2022/07/16 09:42:10;;;;;;;;;;;37.90;63.70;;;;;;4882788;29;19972;-78
2022/07/16 09:44:41;;;;;;;;;;;38.30;63.80;;;;;;4882324;29;20010;-79
2022/07/16 09:47:08;;;;;;;;;;;38.50;63.40;;;;;;4882740;29;20345;-79
2022/07/16 09:49:38;;;;;;;;;;;38.40;63.20;;;;;;4882986;29;19947;-79
2022/07/16 09:52:08;;;;;;;;;;;38.10;63.20;;;;;;4881994;29;19908;-79
2022/07/16 09:54:35;;;;;;;;;;;37.70;63.30;;;;;;4882632;29;20365;-79
2022/07/16 09:57:04;;;;;;;;;;;36.80;63.60;;;;;;4880893;29;19912;-79
2022/07/16 09:59:30;;;;;;;;;;;36.10;64.60;;;;;;4879902;29;19984;-79
2022/07/16 10:01:56;;;;;;;;;;;35.90;65.20;;;;;;4881124;29;19908;-72
2022/07/16 10:04:23;;;;;;;;;;;36.30;65.80;;;;;;4880217;29;19916;-78
2022/07/16 10:06:49;;;;;;;;;;;36.40;65.30;;;;;;4880186;29;19919;-79
2022/07/16 10:09:14;;;;;;;;;;;36.30;65.30;;;;;;4880348;29;19921;-79
2022/07/16 10:11:42;;;;;;;;;;;36.70;65.30;;;;;;4882236;29;19987;-79
2022/07/16 10:14:08;;;;;;;;;;;37.20;65.40;;;;;;4881146;29;19943;-78
2022/07/16 10:16:40;;;;;;;;;;;37.80;64.90;;;;;;4877691;29;20380;-78
2022/07/16 10:19:07;;;;;;;;;;;38.50;65.10;;;;;;4880717;29;20643;-79
2022/07/16 10:21:33;;;;;;;;;;;39.40;64.70;;;;;;4880608;29;20349;-78
2022/07/16 10:24:15;;;;;;;;;;;39.50;63.80;;;;;;4880031;29;19908;-78
2022/07/16 10:26:40;;;;;;;;;;;39.40;63.80;;;;;;4877989;29;19908;-78
2022/07/16 10:29:06;;;;;;;;;;;39.20;64.10;;;;;;4878340;29;19918;-76
2022/07/16 10:31:31;;;;;;;;;;;39.10;63.90;;;;;;4878058;29;20331;-78
2022/07/16 10:34:17;;;;;;;;;;;39.00;63.90;;;;;;4880354;29;19908;-77
2022/07/16 10:36:47;;;;;;;;;;;38.50;63.40;;;;;;4878908;29;19964;-77
2022/07/16 10:39:15;;;;;;;;;;;38.10;63.70;;;;;;4880159;29;19919;-76
2022/07/16 10:41:48;;;;;;;;;;;38.00;64.10;;;;;;4878089;29;19911;-77
2022/07/16 10:44:16;;;;;;;;;;;37.50;63.30;;;;;;4871705;29;19919;-77
2022/07/16 10:46:55;;;;;;;;;;;36.90;64.50;;;;;;4878802;29;20023;-77
2022/07/16 10:49:21;;;;;;;;;;;37.00;65.10;;;;;;4883230;29;19951;-78
2022/07/16 10:51:55;;;;;;;;;;;37.50;64.70;;;;;;4878963;29;19922;-77
2022/07/16 10:54:21;;;;;;;;;;;37.80;64.30;;;;;;4877922;29;19914;-77
2022/07/16 10:56:50;;;;;;;;;;;37.90;64.50;;;;;;4877533;29;19919;-78
2022/07/16 10:59:20;;;;;;;;;;;37.70;64.70;;;;;;4861961;29;20320;-77
2022/07/16 11:01:47;;;;;;;;;;;37.80;65.30;;;;;;4878940;29;19968;-77
2022/07/16 11:04:13;;;;;;;;;;;38.30;65.20;;;;;;4878729;29;19964;-77
2022/07/16 11:06:40;;;;;;;;;;;38.80;65.20;;;;;;4878188;29;19964;-78
2022/07/16 11:09:06;;;;;;;;;;;39.40;65.10;;;;;;4880582;29;19908;-78
2022/07/16 11:11:36;;;;;;;;;;;39.40;64.90;;;;;;4878969;29;20362;-78
2022/07/16 11:14:02;;;;;;;;;;;39.60;65.00;;;;;;4877055;29;19911;-77
2022/07/16 11:16:28;;;;;;;;;;;39.60;64.40;;;;;;4877507;29;20264;-77
2022/07/16 11:18:53;;;;;;;;;;;39.10;64.30;;;;;;4878528;29;19935;-77
2022/07/16 11:21:19;;;;;;;;;;;37.90;63.70;;;;;;4876826;29;19911;-77
2022/07/16 11:23:49;;;;;;;;;;;37.00;64.50;;;;;;4876986;29;20436;-79
2022/07/16 11:26:14;;;;;;;;;;;37.10;65.50;;;;;;4877096;29;19915;-79
2022/07/16 11:28:54;;;;;;;;;;;37.70;65.60;;;;;;4875474;29;19912;-79
2022/07/16 11:31:26;;;;;;;;;;;38.20;65.10;;;;;;4876740;29;19912;-78
2022/07/16 11:33:53;;;;;;;;;;;38.40;65.10;;;;;;4877179;29;20002;-79
2022/07/16 11:36:19;;;;;;;;;;;38.80;65.20;;;;;;4876409;29;19916;-78
2022/07/16 11:38:45;;;;;;;;;;;39.30;65.00;;;;;;4876300;29;19935;-77
2022/07/16 11:41:11;;;;;;;;;;;39.40;64.40;;;;;;4875731;29;20349;-78
2022/07/16 11:43:36;;;;;;;;;;;39.30;64.50;;;;;;4876327;29;19907;-78
2022/07/16 11:46:02;;;;;;;;;;;39.40;64.90;;;;;;4876522;29;19907;-78
2022/07/16 11:48:36;;;;;;;;;;;39.40;64.80;;;;;;4875096;29;19920;-78
2022/07/16 11:51:05;;;;;;;;;;;39.50;64.70;;;;;;4876732;29;19908;-79
2022/07/16 11:53:36;;;;;;;;;;;39.60;64.80;;;;;;4876388;29;19918;-78
2022/07/16 11:56:02;;;;;;;;;;;39.70;64.80;;;;;;4875630;29;19915;-78
2022/07/16 11:58:28;;;;;;;;;;;39.60;64.60;;;;;;4875591;29;19908;-78
2022/07/16 12:00:54;;;;;;;;;;;39.80;64.90;;;;;;4875685;29;19924;-78
2022/07/16 12:03:19;;;;;;;;;;;40.00;64.70;;;;;;4878407;29;19916;-78
2022/07/16 12:05:45;;;;;;;;;;;40.10;64.60;;;;;;4882027;29;19919;-78
2022/07/16 12:08:11;;;;;;;;;;;40.20;64.50;;;;;;4880481;29;19935;-77
2022/07/16 12:10:36;;;;;;;;;;;40.40;64.30;;;;;;4881697;29;19912;-78
2022/07/16 12:13:06;;;;;;;;;;;40.50;64.10;;;;;;4881227;29;20263;-78
2022/07/16 12:15:51;;;;;;;;;;;40.40;64.30;;;;;;4881698;29;19928;-76
2022/07/16 12:18:17;;;;;;;;;;;40.20;64.20;;;;;;4887460;29;20252;-77
2022/07/16 12:20:43;;;;;;;;;;;40.20;64.40;;;;;;4886708;29;19919;-77
2022/07/16 12:23:12;;;;;;;;;;;40.20;64.50;;;;;;4885392;29;19912;-78
2022/07/16 12:25:38;;;;;;;;;;;40.20;64.40;;;;;;4885121;29;19912;-77
2022/07/16 12:28:09;;;;;;;;;;;40.40;64.30;;;;;;4885401;29;19955;-77
2022/07/16 12:30:45;;;;;;;;;;;40.20;63.90;;;;;;4883489;29;19912;-78
2022/07/16 12:33:23;;;;;;;;;;;39.90;63.90;;;;;;4882675;29;20361;-79
2022/07/16 12:35:59;;;;;;;;;;;39.50;64.20;;;;;;4881979;29;19911;-78
2022/07/16 12:38:33;;;;;;;;;;;39.30;64.40;;;;;;4882192;29;20337;-79
2022/07/16 12:40:59;;;;;;;;;;;38.90;64.10;;;;;;4880495;29;20004;-78
2022/07/16 12:43:25;;;;;;;;;;;38.40;64.10;;;;;;4881358;29;19943;-79
2022/07/16 12:45:50;;;;;;;;;;;38.00;64.40;;;;;;4881543;29;20260;-78
2022/07/16 12:48:16;;;;;;;;;;;37.90;64.70;;;;;;4880238;29;20314;-78
2022/07/16 12:50:41;;;;;;;;;;;38.20;64.70;;;;;;4881824;29;20014;-78
2022/07/16 12:53:07;;;;;;;;;;;38.40;64.50;;;;;;4879446;29;19996;-76
2022/07/16 13:01:01;;;;;;;;;;;38.20;63.80;;;;;;4881152;29;20352;-77
2022/07/16 13:03:27;;;;;;;;;;;37.50;63.50;;;;;;4881328;29;19947;-78
2022/07/16 13:05:52;;;;;;;;;;;36.80;63.70;;;;;;4880441;29;20011;-77
2022/07/16 13:08:18;;;;;;;;;;;36.60;64.10;;;;;;4882500;29;19940;-78
2022/07/16 13:10:43;;;;;;;;;;;36.30;64.30;;;;;;4881758;29;19912;-78
2022/07/16 13:13:09;;;;;;;;;;;36.10;64.60;;;;;;4881467;29;19916;-78
2022/07/16 13:15:34;;;;;;;;;;;36.00;65.10;;;;;;4879194;29;19966;-78
2022/07/16 13:18:00;;;;;;;;;;;36.20;65.00;;;;;;4877810;29;20411;-78
2022/07/16 13:20:26;;;;;;;;;;;36.20;64.80;;;;;;4878903;29;20376;-78
2022/07/16 13:22:51;;;;;;;;;;;36.30;64.60;;;;;;4877056;29;20376;-77
2022/07/16 13:25:17;;;;;;;;;;;36.00;64.30;;;;;;4878131;29;19912;-78
2022/07/16 13:27:42;;;;;;;;;;;35.70;64.20;;;;;;4879566;29;19916;-77
2022/07/16 13:30:08;;;;;;;;;;;35.30;64.00;;;;;;4878460;29;19919;-77
2022/07/16 13:32:34;;;;;;;;;;;35.00;63.90;;;;;;4879723;29;20055;-77
2022/07/16 13:34:59;;;;;;;;;;;34.80;63.80;;;;;;4879280;29;19946;-77
2022/07/16 13:37:25;;;;;;;;;;;34.50;63.60;;;;;;4878054;29;19911;-77
2022/07/16 13:39:50;;;;;;;;;;;34.30;64.10;;;;;;4878766;29;19912;-77
2022/07/16 13:42:16;;;;;;;;;;;34.10;63.50;;;;;;4879328;29;20287;-77
2022/07/16 13:44:41;;;;;;;;;;;33.80;63.30;;;;;;4878432;29;20014;-77
2022/07/16 13:47:08;;;;;;;;;;;33.50;63.20;;;;;;4879982;29;19916;-77
2022/07/16 13:49:34;;;;;;;;;;;33.10;63.30;;;;;;4880358;29;19915;-77
2022/07/16 13:52:00;;;;;;;;;;;32.80;63.20;;;;;;4881645;29;20014;-77
2022/07/16 13:54:26;;;;;;;;;;;32.50;63.40;;;;;;4883433;29;19912;-78
2022/07/16 13:56:52;;;;;;;;;;;32.20;63.60;;;;;;4880851;29;19908;-77
2022/07/16 13:59:17;;;;;;;;;;;32.00;63.70;;;;;;4881723;29;19908;-77
2022/07/16 14:01:43;;;;;;;;;;;31.90;63.70;;;;;;4878618;29;19928;-77
2022/07/16 14:04:09;;;;;;;;;;;31.90;63.70;;;;;;4879329;29;19918;-77
2022/07/16 14:06:35;;;;;;;;;;;31.90;63.50;;;;;;4877468;29;20046;-79
2022/07/16 14:09:02;;;;;;;;;;;31.90;63.40;;;;;;4878066;29;19915;-79
2022/07/16 14:11:27;;;;;;;;;;;31.90;63.30;;;;;;4879210;29;19916;-77
2022/07/16 14:13:53;;;;;;;;;;;32.10;63.50;;;;;;4878570;29;19912;-77
2022/07/16 14:16:18;;;;;;;;;;;32.20;63.30;;;;;;4876710;29;19927;-79
2022/07/16 14:18:44;;;;;;;;;;;32.30;63.20;;;;;;4861376;29;19912;-78
2022/07/16 14:21:10;;;;;;;;;;;32.40;62.90;;;;;;4879519;29;19940;-79
2022/07/16 14:23:35;;;;;;;;;;;32.50;62.70;;;;;;4877422;29;19951;-77
2022/07/16 14:26:01;;;;;;;;;;;32.40;62.60;;;;;;4878472;29;19926;-79